Nowra, Australia
Current Conditions -  °F | °C
As of 8:00 AM on Sunday 21 Dec 2014 (Local Time) from YSNW Reporting Station
Clear Clear  
Wind Chill: 66°   Ceiling: Unl
Heat Index: 66°   Visibility: 6mi
Dew Point: 55°   Wind: 5mph
Humidity: 68%   Direction: 330°NNW
Pressure: 30.06"   Gusts: NA
Location:  34.88°S, 150.6°E
Report Text: YSNW 202100Z AUTO 33004KT 9999 // NCD 19/13 Q1018
Loading
Personal Weather Stations






























Interactive Weather Map New forecast layout! Learn more

10-Day Weather Forecast

Advertisements
Track Severe Weather on mobile